sensor_id;sensor_type;location;lat;lon;timestamp;temperature;humidity
25550;DHT22;13444;50.562;7.262;2023-10-13T00:01:34;16.80;99.90
25550;DHT22;13444;50.562;7.262;2023-10-13T00:04:00;16.90;99.90
25550;DHT22;13444;50.562;7.262;2023-10-13T00:06:30;16.90;99.90
25550;DHT22;13444;50.562;7.262;2023-10-13T00:08:56;16.80;99.90
25550;DHT22;13444;50.562;7.262;2023-10-13T00:11:22;16.80;99.90
25550;DHT22;13444;50.562;7.262;2023-10-13T00:13:47;16.90;99.90
25550;DHT22;13444;50.562;7.262;2023-10-13T00:16:17;16.90;99.90
25550;DHT22;13444;50.562;7.262;2023-10-13T00:18:46;16.90;99.90
25550;DHT22;13444;50.562;7.262;2023-10-13T00:21:14;16.90;99.90
25550;DHT22;13444;50.562;7.262;2023-10-13T00:23:56;16.90;99.90
25550;DHT22;13444;50.562;7.262;2023-10-13T00:26:23;16.90;99.90
25550;DHT22;13444;50.562;7.262;2023-10-13T00:29:00;16.90;99.90
25550;DHT22;13444;50.562;7.262;2023-10-13T00:31:32;16.90;99.90
25550;DHT22;13444;50.562;7.262;2023-10-13T00:34:02;16.90;99.90
25550;DHT22;13444;50.562;7.262;2023-10-13T00:36:36;16.90;99.90
25550;DHT22;13444;50.562;7.262;2023-10-13T00:39:02;16.90;99.90
25550;DHT22;13444;50.562;7.262;2023-10-13T00:41:32;16.90;99.90
25550;DHT22;13444;50.562;7.262;2023-10-13T00:44:16;17.00;99.90
25550;DHT22;13444;50.562;7.262;2023-10-13T00:46:43;16.90;99.90
25550;DHT22;13444;50.562;7.262;2023-10-13T00:49:10;17.00;99.90
25550;DHT22;13444;50.562;7.262;2023-10-13T00:51:41;16.90;99.90
25550;DHT22;13444;50.562;7.262;2023-10-13T00:54:13;16.90;99.90
25550;DHT22;13444;50.562;7.262;2023-10-13T00:56:40;16.90;99.90
25550;DHT22;13444;50.562;7.262;2023-10-13T00:59:15;17.00;99.90
25550;DHT22;13444;50.562;7.262;2023-10-13T01:01:41;17.00;99.90
25550;DHT22;13444;50.562;7.262;2023-10-13T01:04:11;17.00;99.90
25550;DHT22;13444;50.562;7.262;2023-10-13T01:06:39;17.00;99.90
25550;DHT22;13444;50.562;7.262;2023-10-13T01:09:09;17.00;99.90
25550;DHT22;13444;50.562;7.262;2023-10-13T01:14:10;17.00;99.90
25550;DHT22;13444;50.562;7.262;2023-10-13T01:16:47;17.00;99.90
25550;DHT22;13444;50.562;7.262;2023-10-13T01:19:17;17.00;99.90
25550;DHT22;13444;50.562;7.262;2023-10-13T01:21:44;17.00;99.90
25550;DHT22;13444;50.562;7.262;2023-10-13T01:24:10;17.10;99.90
25550;DHT22;13444;50.562;7.262;2023-10-13T01:26:41;17.10;99.90
25550;DHT22;13444;50.562;7.262;2023-10-13T01:29:08;17.10;99.90
25550;DHT22;13444;50.562;7.262;2023-10-13T01:31:43;17.10;99.90
25550;DHT22;13444;50.562;7.262;2023-10-13T01:34:14;17.10;99.90
25550;DHT22;13444;50.562;7.262;2023-10-13T01:36:45;17.10;99.90
25550;DHT22;13444;50.562;7.262;2023-10-13T01:39:10;17.10;99.90
25550;DHT22;13444;50.562;7.262;2023-10-13T01:41:37;17.10;99.90
25550;DHT22;13444;50.562;7.262;2023-10-13T01:44:04;17.10;99.90
25550;DHT22;13444;50.562;7.262;2023-10-13T01:46:30;17.10;99.90
25550;DHT22;13444;50.562;7.262;2023-10-13T01:48:55;17.10;99.90
25550;DHT22;13444;50.562;7.262;2023-10-13T01:51:23;17.20;99.90
25550;DHT22;13444;50.562;7.262;2023-10-13T01:53:53;17.20;99.90
25550;DHT22;13444;50.562;7.262;2023-10-13T01:56:22;17.20;99.90
25550;DHT22;13444;50.562;7.262;2023-10-13T01:58:48;17.20;99.90
25550;DHT22;13444;50.562;7.262;2023-10-13T02:01:14;17.20;99.90
25550;DHT22;13444;50.562;7.262;2023-10-13T02:03:52;17.20;99.90
25550;DHT22;13444;50.562;7.262;2023-10-13T02:06:27;17.20;99.90
25550;DHT22;13444;50.562;7.262;2023-10-13T02:09:01;17.20;99.90
25550;DHT22;13444;50.562;7.262;2023-10-13T02:11:47;17.20;99.90
25550;DHT22;13444;50.562;7.262;2023-10-13T02:14:19;17.20;99.90
25550;DHT22;13444;50.562;7.262;2023-10-13T02:16:47;17.20;99.90
25550;DHT22;13444;50.562;7.262;2023-10-13T02:19:15;17.20;99.90
25550;DHT22;13444;50.562;7.262;2023-10-13T02:21:42;17.20;99.90
25550;DHT22;13444;50.562;7.262;2023-10-13T02:24:10;17.30;99.90
25550;DHT22;13444;50.562;7.262;2023-10-13T02:26:43;17.20;99.90
25550;DHT22;13444;50.562;7.262;2023-10-13T02:29:09;17.30;99.90
25550;DHT22;13444;50.562;7.262;2023-10-13T02:31:40;17.30;99.90
25550;DHT22;13444;50.562;7.262;2023-10-13T02:34:06;17.30;99.90
25550;DHT22;13444;50.562;7.262;2023-10-13T02:36:38;17.30;99.90
25550;DHT22;13444;50.562;7.262;2023-10-13T02:39:18;17.20;99.90
25550;DHT22;13444;50.562;7.262;2023-10-13T02:41:53;17.20;99.90
25550;DHT22;13444;50.562;7.262;2023-10-13T02:44:21;17.20;99.90
25550;DHT22;13444;50.562;7.262;2023-10-13T02:46:56;17.20;99.90
25550;DHT22;13444;50.562;7.262;2023-10-13T02:49:25;17.20;99.90
25550;DHT22;13444;50.562;7.262;2023-10-13T02:51:52;17.20;99.90
25550;DHT22;13444;50.562;7.262;2023-10-13T02:54:19;17.30;99.90
25550;DHT22;13444;50.562;7.262;2023-10-13T02:56:45;17.30;99.90
25550;DHT22;13444;50.562;7.262;2023-10-13T02:59:26;17.30;99.90
25550;DHT22;13444;50.562;7.262;2023-10-13T03:02:11;17.30;99.90
25550;DHT22;13444;50.562;7.262;2023-10-13T03:04:49;17.30;99.90
25550;DHT22;13444;50.562;7.262;2023-10-13T03:07:15;17.30;99.90
25550;DHT22;13444;50.562;7.262;2023-10-13T03:09:42;17.40;99.90
25550;DHT22;13444;50.562;7.262;2023-10-13T03:12:16;17.40;99.90
25550;DHT22;13444;50.562;7.262;2023-10-13T03:14:42;17.40;99.90
25550;DHT22;13444;50.562;7.262;2023-10-13T03:17:07;17.40;99.90
25550;DHT22;13444;50.562;7.262;2023-10-13T03:19:43;17.40;99.90
25550;DHT22;13444;50.562;7.262;2023-10-13T03:22:15;17.40;99.90
25550;DHT22;13444;50.562;7.262;2023-10-13T03:24:42;17.50;99.90
25550;DHT22;13444;50.562;7.262;2023-10-13T03:27:17;17.40;99.90
25550;DHT22;13444;50.562;7.262;2023-10-13T03:29:48;17.50;99.90
25550;DHT22;13444;50.562;7.262;2023-10-13T03:32:19;17.50;99.90
25550;DHT22;13444;50.562;7.262;2023-10-13T03:34:46;17.50;99.90
25550;DHT22;13444;50.562;7.262;2023-10-13T03:37:24;17.50;99.90
25550;DHT22;13444;50.562;7.262;2023-10-13T03:40:08;17.50;99.90
25550;DHT22;13444;50.562;7.262;2023-10-13T03:42:56;17.60;99.90
25550;DHT22;13444;50.562;7.262;2023-10-13T03:45:39;17.60;99.90
25550;DHT22;13444;50.562;7.262;2023-10-13T03:48:06;17.50;99.90
25550;DHT22;13444;50.562;7.262;2023-10-13T03:50:40;17.50;99.90
25550;DHT22;13444;50.562;7.262;2023-10-13T03:53:13;17.60;99.90
25550;DHT22;13444;50.562;7.262;2023-10-13T03:55:39;17.50;99.90
25550;DHT22;13444;50.562;7.262;2023-10-13T03:58:05;17.50;99.90
25550;DHT22;13444;50.562;7.262;2023-10-13T04:00:32;17.60;99.90
25550;DHT22;13444;50.562;7.262;2023-10-13T04:02:58;17.50;99.90
25550;DHT22;13444;50.562;7.262;2023-10-13T04:05:40;17.50;99.90
25550;DHT22;13444;50.562;7.262;2023-10-13T04:08:08;17.40;99.90
25550;DHT22;13444;50.562;7.262;2023-10-13T04:10:42;17.40;99.90
25550;DHT22;13444;50.562;7.262;2023-10-13T04:13:17;17.40;99.90
25550;DHT22;13444;50.562;7.262;2023-10-13T04:16:01;17.40;99.90
25550;DHT22;13444;50.562;7.262;2023-10-13T04:18:40;17.40;99.90
25550;DHT22;13444;50.562;7.262;2023-10-13T04:21:21;17.40;99.90
25550;DHT22;13444;50.562;7.262;2023-10-13T04:24:10;17.40;99.90
25550;DHT22;13444;50.562;7.262;2023-10-13T04:26:51;17.40;99.90
25550;DHT22;13444;50.562;7.262;2023-10-13T04:29:35;17.40;99.90
25550;DHT22;13444;50.562;7.262;2023-10-13T04:32:14;17.50;99.90
25550;DHT22;13444;50.562;7.262;2023-10-13T04:34:44;17.50;99.90
25550;DHT22;13444;50.562;7.262;2023-10-13T04:37:12;17.60;99.90
25550;DHT22;13444;50.562;7.262;2023-10-13T04:39:58;17.60;99.90
25550;DHT22;13444;50.562;7.262;2023-10-13T04:42:37;17.50;99.90
25550;DHT22;13444;50.562;7.262;2023-10-13T04:45:16;17.50;99.90
25550;DHT22;13444;50.562;7.262;2023-10-13T04:48:02;17.50;99.90
25550;DHT22;13444;50.562;7.262;2023-10-13T04:50:54;17.60;99.90
25550;DHT22;13444;50.562;7.262;2023-10-13T04:53:43;17.60;99.90
25550;DHT22;13444;50.562;7.262;2023-10-13T04:56:27;17.60;99.90
25550;DHT22;13444;50.562;7.262;2023-10-13T04:59:11;17.70;99.90
25550;DHT22;13444;50.562;7.262;2023-10-13T05:01:40;17.70;99.90
25550;DHT22;13444;50.562;7.262;2023-10-13T05:04:24;17.70;99.90
25550;DHT22;13444;50.562;7.262;2023-10-13T05:07:24;17.70;99.90
25550;DHT22;13444;50.562;7.262;2023-10-13T05:10:08;17.70;99.90
25550;DHT22;13444;50.562;7.262;2023-10-13T05:12:52;17.80;99.90
25550;DHT22;13444;50.562;7.262;2023-10-13T05:15:49;17.80;99.90
25550;DHT22;13444;50.562;7.262;2023-10-13T05:18:33;17.80;99.90
25550;DHT22;13444;50.562;7.262;2023-10-13T05:21:18;17.90;99.90
25550;DHT22;13444;50.562;7.262;2023-10-13T05:24:03;17.90;99.90
25550;DHT22;13444;50.562;7.262;2023-10-13T05:26:48;17.90;99.90
25550;DHT22;13444;50.562;7.262;2023-10-13T05:29:32;17.90;99.90
25550;DHT22;13444;50.562;7.262;2023-10-13T05:32:16;17.90;99.90
25550;DHT22;13444;50.562;7.262;2023-10-13T05:35:00;17.90;99.90
25550;DHT22;13444;50.562;7.262;2023-10-13T05:37:44;17.90;99.90
25550;DHT22;13444;50.562;7.262;2023-10-13T05:40:29;17.90;99.90
25550;DHT22;13444;50.562;7.262;2023-10-13T05:43:13;17.90;99.90
25550;DHT22;13444;50.562;7.262;2023-10-13T05:46:02;17.90;99.90
25550;DHT22;13444;50.562;7.262;2023-10-13T05:48:48;17.90;99.90
25550;DHT22;13444;50.562;7.262;2023-10-13T05:51:30;17.90;99.90
25550;DHT22;13444;50.562;7.262;2023-10-13T05:54:15;17.90;99.90
25550;DHT22;13444;50.562;7.262;2023-10-13T05:56:45;18.00;99.90
25550;DHT22;13444;50.562;7.262;2023-10-13T05:59:30;18.00;99.90
25550;DHT22;13444;50.562;7.262;2023-10-13T06:02:16;18.00;99.90
25550;DHT22;13444;50.562;7.262;2023-10-13T06:05:05;18.10;99.90
25550;DHT22;13444;50.562;7.262;2023-10-13T06:07:49;18.10;99.90
25550;DHT22;13444;50.562;7.262;2023-10-13T06:10:34;18.10;99.90
25550;DHT22;13444;50.562;7.262;2023-10-13T06:13:18;18.10;99.90
25550;DHT22;13444;50.562;7.262;2023-10-13T06:16:07;18.10;99.90
25550;DHT22;13444;50.562;7.262;2023-10-13T06:18:51;18.10;99.90
25550;DHT22;13444;50.562;7.262;2023-10-13T06:21:35;18.20;99.90
25550;DHT22;13444;50.562;7.262;2023-10-13T06:24:20;18.20;99.90
25550;DHT22;13444;50.562;7.262;2023-10-13T06:27:04;18.20;99.90
25550;DHT22;13444;50.562;7.262;2023-10-13T06:29:48;18.30;99.90
25550;DHT22;13444;50.562;7.262;2023-10-13T06:32:14;18.30;99.90
25550;DHT22;13444;50.562;7.262;2023-10-13T06:34:42;18.30;99.90
25550;DHT22;13444;50.562;7.262;2023-10-13T06:37:13;18.30;99.90
25550;DHT22;13444;50.562;7.262;2023-10-13T06:39:54;18.30;99.90
25550;DHT22;13444;50.562;7.262;2023-10-13T06:42:40;18.30;99.90
25550;DHT22;13444;50.562;7.262;2023-10-13T06:45:08;18.40;99.90
25550;DHT22;13444;50.562;7.262;2023-10-13T06:47:38;18.40;99.90
25550;DHT22;13444;50.562;7.262;2023-10-13T06:50:15;18.40;99.90
25550;DHT22;13444;50.562;7.262;2023-10-13T06:52:45;18.50;99.90
25550;DHT22;13444;50.562;7.262;2023-10-13T06:55:11;18.50;99.90
25550;DHT22;13444;50.562;7.262;2023-10-13T06:58:03;18.50;99.90
25550;DHT22;13444;50.562;7.262;2023-10-13T07:00:32;18.50;99.90
25550;DHT22;13444;50.562;7.262;2023-10-13T07:03:04;18.50;99.90
25550;DHT22;13444;50.562;7.262;2023-10-13T07:05:39;18.60;99.90
25550;DHT22;13444;50.562;7.262;2023-10-13T07:08:07;18.60;99.90
25550;DHT22;13444;50.562;7.262;2023-10-13T07:10:34;18.70;99.90
25550;DHT22;13444;50.562;7.262;2023-10-13T07:13:17;18.70;99.90
25550;DHT22;13444;50.562;7.262;2023-10-13T07:15:47;18.70;99.90
25550;DHT22;13444;50.562;7.262;2023-10-13T07:18:16;18.70;99.90
25550;DHT22;13444;50.562;7.262;2023-10-13T07:20:44;18.80;99.90
25550;DHT22;13444;50.562;7.262;2023-10-13T07:23:11;18.80;99.90
25550;DHT22;13444;50.562;7.262;2023-10-13T07:25:51;18.70;99.90
25550;DHT22;13444;50.562;7.262;2023-10-13T07:28:17;18.70;99.90
25550;DHT22;13444;50.562;7.262;2023-10-13T07:30:43;18.70;99.90
25550;DHT22;13444;50.562;7.262;2023-10-13T07:33:21;18.70;99.90
25550;DHT22;13444;50.562;7.262;2023-10-13T07:35:48;18.80;99.90
25550;DHT22;13444;50.562;7.262;2023-10-13T07:38:17;18.80;99.90
25550;DHT22;13444;50.562;7.262;2023-10-13T07:40:43;18.80;99.90
25550;DHT22;13444;50.562;7.262;2023-10-13T07:43:16;18.90;99.90
25550;DHT22;13444;50.562;7.262;2023-10-13T07:45:46;18.90;99.90
25550;DHT22;13444;50.562;7.262;2023-10-13T07:48:16;18.80;99.90
25550;DHT22;13444;50.562;7.262;2023-10-13T07:51:08;18.80;99.90
25550;DHT22;13444;50.562;7.262;2023-10-13T07:53:36;18.80;99.90
25550;DHT22;13444;50.562;7.262;2023-10-13T07:56:09;18.80;99.90
25550;DHT22;13444;50.562;7.262;2023-10-13T07:58:40;18.80;99.90
25550;DHT22;13444;50.562;7.262;2023-10-13T08:01:18;18.80;99.90
25550;DHT22;13444;50.562;7.262;2023-10-13T08:03:45;18.90;99.90
25550;DHT22;13444;50.562;7.262;2023-10-13T08:06:16;19.00;99.90
25550;DHT22;13444;50.562;7.262;2023-10-13T08:08:42;19.00;99.90
25550;DHT22;13444;50.562;7.262;2023-10-13T08:11:10;19.10;99.90
25550;DHT22;13444;50.562;7.262;2023-10-13T08:13:41;19.20;99.90
25550;DHT22;13444;50.562;7.262;2023-10-13T08:16:12;19.20;99.90
25550;DHT22;13444;50.562;7.262;2023-10-13T08:18:47;19.30;99.90
25550;DHT22;13444;50.562;7.262;2023-10-13T08:21:15;19.40;99.90
25550;DHT22;13444;50.562;7.262;2023-10-13T08:23:44;19.50;99.90
25550;DHT22;13444;50.562;7.262;2023-10-13T08:26:22;19.50;99.90
25550;DHT22;13444;50.562;7.262;2023-10-13T08:29:07;19.60;99.90
25550;DHT22;13444;50.562;7.262;2023-10-13T08:31:49;19.70;99.90
25550;DHT22;13444;50.562;7.262;2023-10-13T08:34:40;19.70;99.90
25550;DHT22;13444;50.562;7.262;2023-10-13T08:37:09;19.80;99.90
25550;DHT22;13444;50.562;7.262;2023-10-13T08:39:57;19.90;99.90
25550;DHT22;13444;50.562;7.262;2023-10-13T08:47:35;20.00;99.90
25550;DHT22;13444;50.562;7.262;2023-10-13T08:50:03;20.00;99.90
25550;DHT22;13444;50.562;7.262;2023-10-13T08:52:57;20.00;99.90
25550;DHT22;13444;50.562;7.262;2023-10-13T08:55:25;20.10;99.90
25550;DHT22;13444;50.562;7.262;2023-10-13T08:58:26;20.10;99.90
25550;DHT22;13444;50.562;7.262;2023-10-13T09:01:11;20.00;99.90
25550;DHT22;13444;50.562;7.262;2023-10-13T09:03:39;20.00;99.90
25550;DHT22;13444;50.562;7.262;2023-10-13T09:06:05;20.00;99.90
25550;DHT22;13444;50.562;7.262;2023-10-13T09:08:34;20.10;99.90
25550;DHT22;13444;50.562;7.262;2023-10-13T09:11:22;20.20;99.90
25550;DHT22;13444;50.562;7.262;2023-10-13T09:13:53;20.20;99.90
25550;DHT22;13444;50.562;7.262;2023-10-13T09:16:18;20.30;99.90
25550;DHT22;13444;50.562;7.262;2023-10-13T09:19:09;20.40;99.90
25550;DHT22;13444;50.562;7.262;2023-10-13T09:21:41;20.60;99.90
25550;DHT22;13444;50.562;7.262;2023-10-13T09:24:12;20.60;99.90
25550;DHT22;13444;50.562;7.262;2023-10-13T09:26:58;20.60;99.90
25550;DHT22;13444;50.562;7.262;2023-10-13T09:29:26;20.60;99.90
25550;DHT22;13444;50.562;7.262;2023-10-13T09:32:00;20.60;99.90
25550;DHT22;13444;50.562;7.262;2023-10-13T09:34:27;20.60;99.90
25550;DHT22;13444;50.562;7.262;2023-10-13T09:36:59;20.60;99.90
25550;DHT22;13444;50.562;7.262;2023-10-13T09:39:28;20.60;99.90
25550;DHT22;13444;50.562;7.262;2023-10-13T09:42:02;20.70;99.90
25550;DHT22;13444;50.562;7.262;2023-10-13T09:44:29;20.80;99.90
25550;DHT22;13444;50.562;7.262;2023-10-13T09:47:03;20.80;99.90
25550;DHT22;13444;50.562;7.262;2023-10-13T09:49:39;20.90;99.90
25550;DHT22;13444;50.562;7.262;2023-10-13T09:52:15;21.00;99.90
25550;DHT22;13444;50.562;7.262;2023-10-13T09:57:28;21.20;99.90
25550;DHT22;13444;50.562;7.262;2023-10-13T10:00:10;21.30;99.90
25550;DHT22;13444;50.562;7.262;2023-10-13T10:02:57;21.30;99.90
25550;DHT22;13444;50.562;7.262;2023-10-13T10:05:25;21.40;99.90
25550;DHT22;13444;50.562;7.262;2023-10-13T10:07:55;21.50;99.90
25550;DHT22;13444;50.562;7.262;2023-10-13T10:10:22;21.50;99.90
25550;DHT22;13444;50.562;7.262;2023-10-13T10:13:01;21.50;99.90
25550;DHT22;13444;50.562;7.262;2023-10-13T10:15:34;21.60;99.90
25550;DHT22;13444;50.562;7.262;2023-10-13T10:18:02;21.70;99.60
25550;DHT22;13444;50.562;7.262;2023-10-13T10:20:34;21.70;98.20
25550;DHT22;13444;50.562;7.262;2023-10-13T10:23:27;21.70;97.00
25550;DHT22;13444;50.562;7.262;2023-10-13T10:25:54;21.90;97.70
25550;DHT22;13444;50.562;7.262;2023-10-13T10:28:37;21.90;95.10
25550;DHT22;13444;50.562;7.262;2023-10-13T10:31:08;22.00;92.80
25550;DHT22;13444;50.562;7.262;2023-10-13T10:33:42;22.10;87.20
25550;DHT22;13444;50.562;7.262;2023-10-13T10:36:09;22.20;83.70
25550;DHT22;13444;50.562;7.262;2023-10-13T10:38:54;22.40;67.30
25550;DHT22;13444;50.562;7.262;2023-10-13T10:41:29;22.50;74.40
25550;DHT22;13444;50.562;7.262;2023-10-13T10:44:12;22.60;60.00
25550;DHT22;13444;50.562;7.262;2023-10-13T10:47:11;22.70;51.90
25550;DHT22;13444;50.562;7.262;2023-10-13T10:49:38;22.90;61.10
25550;DHT22;13444;50.562;7.262;2023-10-13T10:52:04;22.90;58.70
25550;DHT22;13444;50.562;7.262;2023-10-13T10:54:35;23.00;53.70
25550;DHT22;13444;50.562;7.262;2023-10-13T10:57:01;23.10;48.80
25550;DHT22;13444;50.562;7.262;2023-10-13T10:59:37;23.20;24.00
25550;DHT22;13444;50.562;7.262;2023-10-13T11:02:03;23.30;27.60
25550;DHT22;13444;50.562;7.262;2023-10-13T11:04:29;23.40;24.60
25550;DHT22;13444;50.562;7.262;2023-10-13T11:07:07;23.50;23.70
25550;DHT22;13444;50.562;7.262;2023-10-13T11:09:34;23.60;8.30
25550;DHT22;13444;50.562;7.262;2023-10-13T11:12:15;23.70;5.70
25550;DHT22;13444;50.562;7.262;2023-10-13T11:14:45;23.70;12.40
25550;DHT22;13444;50.562;7.262;2023-10-13T11:17:20;23.80;7.00
25550;DHT22;13444;50.562;7.262;2023-10-13T11:19:51;23.80;2.70
25550;DHT22;13444;50.562;7.262;2023-10-13T11:22:21;23.80;1.00
25550;DHT22;13444;50.562;7.262;2023-10-13T11:25:26;23.80;1.00
25550;DHT22;13444;50.562;7.262;2023-10-13T11:27:56;23.90;1.00
25550;DHT22;13444;50.562;7.262;2023-10-13T11:30:24;23.90;1.00
25550;DHT22;13444;50.562;7.262;2023-10-13T11:33:01;24.00;1.00
25550;DHT22;13444;50.562;7.262;2023-10-13T11:35:31;24.10;1.00
25550;DHT22;13444;50.562;7.262;2023-10-13T11:38:15;24.10;1.00
25550;DHT22;13444;50.562;7.262;2023-10-13T11:40:50;24.10;1.00
25550;DHT22;13444;50.562;7.262;2023-10-13T11:43:31;24.10;1.00
25550;DHT22;13444;50.562;7.262;2023-10-13T11:46:01;24.20;1.00
25550;DHT22;13444;50.562;7.262;2023-10-13T11:48:40;24.20;1.00
25550;DHT22;13444;50.562;7.262;2023-10-13T11:51:11;24.20;1.00
25550;DHT22;13444;50.562;7.262;2023-10-13T11:53:50;24.20;1.00
25550;DHT22;13444;50.562;7.262;2023-10-13T11:56:19;24.30;1.00
25550;DHT22;13444;50.562;7.262;2023-10-13T11:58:47;24.30;1.00
25550;DHT22;13444;50.562;7.262;2023-10-13T12:01:14;24.20;1.00
25550;DHT22;13444;50.562;7.262;2023-10-13T12:03:40;24.30;1.00
25550;DHT22;13444;50.562;7.262;2023-10-13T12:06:25;24.30;1.00
25550;DHT22;13444;50.562;7.262;2023-10-13T12:09:07;24.40;1.00
25550;DHT22;13444;50.562;7.262;2023-10-13T12:11:56;24.40;1.00
25550;DHT22;13444;50.562;7.262;2023-10-13T12:14:25;24.50;1.00
25550;DHT22;13444;50.562;7.262;2023-10-13T12:16:55;24.60;1.00
25550;DHT22;13444;50.562;7.262;2023-10-13T12:19:22;24.70;1.00
25550;DHT22;13444;50.562;7.262;2023-10-13T12:21:54;25.00;1.00
25550;DHT22;13444;50.562;7.262;2023-10-13T12:24:20;25.20;1.00
25550;DHT22;13444;50.562;7.262;2023-10-13T12:27:04;25.20;1.00
25550;DHT22;13444;50.562;7.262;2023-10-13T12:29:46;25.20;1.00
25550;DHT22;13444;50.562;7.262;2023-10-13T12:32:13;25.10;1.00
25550;DHT22;13444;50.562;7.262;2023-10-13T12:34:40;25.20;1.00
25550;DHT22;13444;50.562;7.262;2023-10-13T12:37:31;25.20;1.00
25550;DHT22;13444;50.562;7.262;2023-10-13T12:40:11;25.30;1.00
25550;DHT22;13444;50.562;7.262;2023-10-13T12:42:56;25.20;1.00
25550;DHT22;13444;50.562;7.262;2023-10-13T12:45:43;25.20;1.00
25550;DHT22;13444;50.562;7.262;2023-10-13T12:48:28;25.40;1.00
25550;DHT22;13444;50.562;7.262;2023-10-13T12:51:12;25.70;1.00
25550;DHT22;13444;50.562;7.262;2023-10-13T12:53:56;25.90;1.00
25550;DHT22;13444;50.562;7.262;2023-10-13T12:56:30;26.10;1.00
25550;DHT22;13444;50.562;7.262;2023-10-13T12:58:56;26.30;1.00
25550;DHT22;13444;50.562;7.262;2023-10-13T13:01:23;26.40;1.00
25550;DHT22;13444;50.562;7.262;2023-10-13T13:03:51;26.30;99.90
25550;DHT22;13444;50.562;7.262;2023-10-13T13:06:22;26.30;99.90
25550;DHT22;13444;50.562;7.262;2023-10-13T13:08:53;26.20;1.00
25550;DHT22;13444;50.562;7.262;2023-10-13T13:11:19;26.00;1.00
25550;DHT22;13444;50.562;7.262;2023-10-13T13:13:45;25.80;1.00
25550;DHT22;13444;50.562;7.262;2023-10-13T13:16:14;25.60;1.00
25550;DHT22;13444;50.562;7.262;2023-10-13T13:18:40;25.40;1.00
25550;DHT22;13444;50.562;7.262;2023-10-13T13:21:05;25.20;1.00
25550;DHT22;13444;50.562;7.262;2023-10-13T13:23:37;25.10;1.00
25550;DHT22;13444;50.562;7.262;2023-10-13T13:26:05;24.90;1.00
25550;DHT22;13444;50.562;7.262;2023-10-13T13:28:41;24.90;1.00
25550;DHT22;13444;50.562;7.262;2023-10-13T13:31:08;24.70;1.00
25550;DHT22;13444;50.562;7.262;2023-10-13T13:33:34;24.70;1.00
25550;DHT22;13444;50.562;7.262;2023-10-13T13:36:04;24.50;1.00
25550;DHT22;13444;50.562;7.262;2023-10-13T13:38:30;24.40;1.00
25550;DHT22;13444;50.562;7.262;2023-10-13T13:40:57;24.30;1.00
25550;DHT22;13444;50.562;7.262;2023-10-13T13:43:24;24.30;1.00
25550;DHT22;13444;50.562;7.262;2023-10-13T13:46:23;24.30;1.00
25550;DHT22;13444;50.562;7.262;2023-10-13T13:48:58;24.20;1.00
25550;DHT22;13444;50.562;7.262;2023-10-13T13:51:29;24.20;1.00
25550;DHT22;13444;50.562;7.262;2023-10-13T13:53:58;24.10;1.00
25550;DHT22;13444;50.562;7.262;2023-10-13T13:56:24;24.10;1.00
25550;DHT22;13444;50.562;7.262;2023-10-13T13:58:54;24.20;1.00
25550;DHT22;13444;50.562;7.262;2023-10-13T14:01:21;24.20;1.00
25550;DHT22;13444;50.562;7.262;2023-10-13T14:03:49;24.20;1.00
25550;DHT22;13444;50.562;7.262;2023-10-13T14:06:19;24.20;1.00
25550;DHT22;13444;50.562;7.262;2023-10-13T14:08:56;24.30;1.00
25550;DHT22;13444;50.562;7.262;2023-10-13T14:11:23;24.30;1.00
25550;DHT22;13444;50.562;7.262;2023-10-13T14:14:05;24.30;1.00
25550;DHT22;13444;50.562;7.262;2023-10-13T14:16:41;24.40;1.00
25550;DHT22;13444;50.562;7.262;2023-10-13T14:19:13;24.40;1.00
25550;DHT22;13444;50.562;7.262;2023-10-13T14:21:59;24.40;1.00
25550;DHT22;13444;50.562;7.262;2023-10-13T14:24:32;24.40;1.00
25550;DHT22;13444;50.562;7.262;2023-10-13T14:27:02;24.40;1.00
25550;DHT22;13444;50.562;7.262;2023-10-13T14:29:54;24.40;1.00
25550;DHT22;13444;50.562;7.262;2023-10-13T14:32:20;24.50;1.00
25550;DHT22;13444;50.562;7.262;2023-10-13T14:34:50;24.40;1.00
25550;DHT22;13444;50.562;7.262;2023-10-13T14:37:20;24.40;1.00
25550;DHT22;13444;50.562;7.262;2023-10-13T14:39:56;24.30;1.00
25550;DHT22;13444;50.562;7.262;2023-10-13T14:42:26;24.30;1.00
25550;DHT22;13444;50.562;7.262;2023-10-13T14:44:51;24.30;1.00
25550;DHT22;13444;50.562;7.262;2023-10-13T14:47:23;24.30;1.00
25550;DHT22;13444;50.562;7.262;2023-10-13T14:49:54;24.20;1.00
25550;DHT22;13444;50.562;7.262;2023-10-13T14:52:21;24.20;1.00
25550;DHT22;13444;50.562;7.262;2023-10-13T14:54:47;24.10;1.00
25550;DHT22;13444;50.562;7.262;2023-10-13T14:57:16;24.10;1.00
25550;DHT22;13444;50.562;7.262;2023-10-13T14:59:41;24.10;1.00
25550;DHT22;13444;50.562;7.262;2023-10-13T15:02:07;24.10;1.00
25550;DHT22;13444;50.562;7.262;2023-10-13T15:04:33;24.10;1.00
25550;DHT22;13444;50.562;7.262;2023-10-13T15:07:00;24.10;1.00
25550;DHT22;13444;50.562;7.262;2023-10-13T15:09:29;24.10;1.00
25550;DHT22;13444;50.562;7.262;2023-10-13T15:11:55;24.10;1.00
25550;DHT22;13444;50.562;7.262;2023-10-13T15:14:21;24.00;1.00
25550;DHT22;13444;50.562;7.262;2023-10-13T15:16:48;24.00;1.00
25550;DHT22;13444;50.562;7.262;2023-10-13T15:19:14;23.90;1.00
25550;DHT22;13444;50.562;7.262;2023-10-13T15:21:42;23.90;1.00
25550;DHT22;13444;50.562;7.262;2023-10-13T15:24:09;23.90;1.00
25550;DHT22;13444;50.562;7.262;2023-10-13T15:26:45;23.90;1.00
25550;DHT22;13444;50.562;7.262;2023-10-13T15:29:17;23.80;1.00
25550;DHT22;13444;50.562;7.262;2023-10-13T15:31:46;23.80;1.00
25550;DHT22;13444;50.562;7.262;2023-10-13T15:34:24;23.80;1.00
25550;DHT22;13444;50.562;7.262;2023-10-13T15:36:52;23.70;1.00
25550;DHT22;13444;50.562;7.262;2023-10-13T15:39:20;23.60;1.00
25550;DHT22;13444;50.562;7.262;2023-10-13T15:41:57;23.60;1.00
25550;DHT22;13444;50.562;7.262;2023-10-13T15:44:27;23.60;1.00
25550;DHT22;13444;50.562;7.262;2023-10-13T15:46:57;23.50;1.00
25550;DHT22;13444;50.562;7.262;2023-10-13T15:49:23;23.50;1.00
25550;DHT22;13444;50.562;7.262;2023-10-13T15:51:49;23.40;1.00
25550;DHT22;13444;50.562;7.262;2023-10-13T15:54:17;23.40;1.00
25550;DHT22;13444;50.562;7.262;2023-10-13T15:56:43;23.40;1.00
25550;DHT22;13444;50.562;7.262;2023-10-13T15:59:09;23.30;1.00
25550;DHT22;13444;50.562;7.262;2023-10-13T16:01:35;23.30;1.00
25550;DHT22;13444;50.562;7.262;2023-10-13T16:04:01;23.20;1.00
25550;DHT22;13444;50.562;7.262;2023-10-13T16:06:45;23.20;1.00
25550;DHT22;13444;50.562;7.262;2023-10-13T16:09:19;23.20;1.00
25550;DHT22;13444;50.562;7.262;2023-10-13T16:11:51;23.10;1.00
25550;DHT22;13444;50.562;7.262;2023-10-13T16:14:17;23.10;1.00
25550;DHT22;13444;50.562;7.262;2023-10-13T16:16:47;23.10;1.00
25550;DHT22;13444;50.562;7.262;2023-10-13T16:19:14;23.00;1.00
25550;DHT22;13444;50.562;7.262;2023-10-13T16:21:45;23.00;1.00
25550;DHT22;13444;50.562;7.262;2023-10-13T16:24:12;22.90;1.00
25550;DHT22;13444;50.562;7.262;2023-10-13T16:26:37;22.80;1.00